createdAt,value
2019-04-22T00:01:06.984Z,101270.87
2019-04-22T00:03:41.613Z,101270.97
2019-04-22T00:06:25.548Z,101263.89
2019-04-22T00:09:05.527Z,101264.45
2019-04-22T00:11:35.441Z,101262.19
2019-04-22T00:14:10.580Z,101256.95
2019-04-22T00:16:48.774Z,101256.11
2019-04-22T00:21:47.666Z,101260.61
2019-04-22T00:24:12.102Z,101249.56
2019-04-22T00:26:50.102Z,101254.03
2019-04-22T00:29:46.600Z,101251.00
2019-04-22T00:32:04.995Z,101253.67
2019-04-22T00:34:42.637Z,101247.16
2019-04-22T00:37:17.179Z,101248.48
2019-04-22T00:39:46.535Z,101242.31
2019-04-22T00:42:21.140Z,101245.89
2019-04-22T00:44:57.834Z,101249.48
2019-04-22T00:47:29.246Z,101252.59
2019-04-22T00:50:17.472Z,101247.34
2019-04-22T00:52:32.399Z,101242.50
2019-04-22T00:54:59.413Z,101242.52
2019-04-22T00:57:35.748Z,101239.49
2019-04-22T01:00:05.604Z,101239.08
2019-04-22T01:02:34.200Z,101239.58
2019-04-22T01:05:12.979Z,101244.00
2019-04-22T01:07:36.881Z,101245.88
2019-04-22T01:10:16.519Z,101241.53
2019-04-22T01:12:44.313Z,101241.13
2019-04-22T01:15:17.484Z,101241.17
2019-04-22T01:17:45.035Z,101232.84
2019-04-22T01:20:50.924Z,101237.70
2019-04-22T01:22:53.217Z,101240.41
2019-04-22T01:25:19.178Z,101230.28
2019-04-22T01:27:50.197Z,101226.77
2019-04-22T01:30:17.211Z,101223.33
2019-04-22T01:32:43.200Z,101226.90
2019-04-22T01:35:26.414Z,101218.17
2019-04-22T01:38:03.163Z,101217.66
2019-04-22T01:40:45.129Z,101217.69
2019-04-22T01:43:18.625Z,101215.54
2019-04-22T01:45:44.792Z,101217.76
2019-04-22T01:48:17.980Z,101209.40
2019-04-22T01:50:49.697Z,101206.80
2019-04-22T01:53:28.679Z,101205.03
2019-04-22T01:55:59.020Z,101208.18
2019-04-22T01:58:24.883Z,101201.58
2019-04-22T02:01:04.592Z,101202.47
2019-04-22T02:03:35.983Z,101202.98
2019-04-22T02:06:07.206Z,101195.53
2019-04-22T02:08:44.921Z,101198.22
2019-04-22T02:11:09.355Z,101201.46
2019-04-22T02:13:42.773Z,101193.02
2019-04-22T02:16:14.257Z,101193.86
2019-04-22T02:18:44.848Z,101192.59
2019-04-22T02:21:15.033Z,101195.06
2019-04-22T02:26:35.448Z,101198.86
2019-04-22T02:39:05.703Z,101193.23
2019-04-22T02:41:34.916Z,101194.98
2019-04-22T02:44:16.728Z,101188.41
2019-04-22T02:54:30.223Z,101174.79
2019-04-22T02:56:48.023Z,101175.26
2019-04-22T02:59:14.871Z,101165.55
2019-04-22T03:04:20.510Z,101165.17
2019-04-22T03:06:43.600Z,101162.11
2019-04-22T03:09:25.638Z,101159.95
2019-04-22T03:12:11.289Z,101154.70
2019-04-22T03:14:30.324Z,101152.12
2019-04-22T03:16:59.720Z,101145.04
2019-04-22T03:19:45.769Z,101154.26
2019-04-22T03:22:08.236Z,101151.26
2019-04-22T03:27:19.458Z,101146.50
2019-04-22T03:40:28.612Z,101149.59
2019-04-22T03:43:07.561Z,101145.66
2019-04-22T03:47:59.616Z,101140.44
2019-04-22T03:50:25.270Z,101148.38
2019-04-22T03:53:03.673Z,101146.20
2019-04-22T03:55:37.400Z,101141.87
2019-04-22T04:03:07.043Z,101148.05
2019-04-22T04:05:49.967Z,101139.70
2019-04-22T04:10:53.423Z,101140.23
2019-04-22T04:13:16.837Z,101143.28
2019-04-22T04:15:38.429Z,101140.18
2019-04-22T04:18:24.244Z,101136.17
2019-04-22T04:21:00.666Z,101134.92
2019-04-22T04:23:31.096Z,101134.05
2019-04-22T04:25:52.676Z,101138.55
2019-04-22T04:31:17.705Z,101134.52
2019-04-22T04:33:40.691Z,101139.33
2019-04-22T04:36:14.639Z,101138.03
2019-04-22T04:38:48.061Z,101141.57
2019-04-22T04:43:52.655Z,101134.05
2019-04-22T04:46:37.640Z,101137.12
2019-04-22T04:49:16.174Z,101130.52
2019-04-22T04:51:33.745Z,101137.12
2019-04-22T04:54:23.792Z,101140.14
2019-04-22T04:56:40.583Z,101144.55
2019-04-22T05:12:03.529Z,101146.13
2019-04-22T05:16:54.610Z,101142.95
2019-04-22T05:27:13.488Z,101139.30
2019-04-22T05:29:56.544Z,101139.74
2019-04-22T05:32:13.740Z,101138.30
2019-04-22T05:34:40.153Z,101135.20
2019-04-22T05:37:17.615Z,101134.73
2019-04-22T05:39:44.918Z,101138.64
2019-04-22T05:44:49.791Z,101136.70
2019-04-22T05:47:19.539Z,101139.28
2019-04-22T05:49:48.103Z,101135.66
2019-04-22T05:52:25.012Z,101133.88
2019-04-22T05:55:02.523Z,101135.93
2019-04-22T05:57:35.259Z,101135.83
2019-04-22T06:00:07.422Z,101137.59
2019-04-22T06:02:56.846Z,101135.66
2019-04-22T06:05:16.893Z,101128.53
2019-04-22T06:07:50.689Z,101140.34
2019-04-22T06:10:26.057Z,101138.02
2019-04-22T06:12:58.835Z,101138.43
2019-04-22T06:15:29.087Z,101138.81
2019-04-22T06:18:12.412Z,101140.92
2019-04-22T06:20:38.398Z,101137.23
2019-04-22T06:23:12.817Z,101139.72
2019-04-22T06:28:28.836Z,101139.55
2019-04-22T06:33:30.270Z,101138.97
2019-04-22T06:36:02.061Z,101136.66
2019-04-22T06:43:41.932Z,101143.19
2019-04-22T06:46:17.055Z,101139.58
2019-04-22T06:48:42.289Z,101136.33
2019-04-22T06:51:19.894Z,101133.14
2019-04-22T06:53:53.706Z,101133.56
2019-04-22T06:56:27.590Z,101137.31
2019-04-22T06:59:03.437Z,101131.32
2019-04-22T07:01:40.511Z,101133.44
2019-04-22T07:04:03.108Z,101132.00
2019-04-22T07:06:48.331Z,101131.36
2019-04-22T07:11:44.115Z,101128.00
2019-04-22T07:14:20.472Z,101127.34
2019-04-22T07:16:54.243Z,101122.72
2019-04-22T07:19:27.885Z,101121.93
2019-04-22T07:22:03.336Z,101112.93
2019-04-22T07:24:40.326Z,101113.14
2019-04-22T07:27:08.584Z,101118.69
2019-04-22T07:29:35.167Z,101108.27
2019-04-22T07:32:11.680Z,101107.61
2019-04-22T07:34:40.782Z,101105.48
2019-04-22T07:39:46.754Z,101104.83
2019-04-22T07:42:27.881Z,101101.84
2019-04-22T07:44:55.152Z,101098.19
2019-04-22T07:49:59.190Z,101088.92
2019-04-22T07:52:27.360Z,101095.78
2019-04-22T07:57:32.821Z,101096.01
2019-04-22T08:00:10.674Z,101091.91
2019-04-22T08:02:44.272Z,101080.66
2019-04-22T08:05:26.430Z,101081.50
2019-04-22T08:08:07.196Z,101086.36
2019-04-22T08:13:11.689Z,101076.70
2019-04-22T08:15:48.576Z,101081.02
2019-04-22T08:18:17.788Z,101075.64
2019-04-22T08:20:54.040Z,101074.06
2019-04-22T08:23:31.704Z,101066.59
2019-04-22T08:26:16.791Z,101062.77
2019-04-22T08:31:10.801Z,101067.13
2019-04-22T08:33:36.537Z,101068.05
2019-04-22T08:38:48.714Z,101068.05
2019-04-22T08:43:59.349Z,101063.28
2019-04-22T08:46:27.460Z,101062.59
2019-04-22T08:56:46.040Z,101054.05
2019-04-22T08:59:09.460Z,101058.72
2019-04-22T09:01:35.803Z,101054.70
2019-04-22T09:04:05.768Z,101051.21
2019-04-22T09:07:02.552Z,101035.45
2019-04-22T09:09:25.008Z,101041.94
2019-04-22T09:11:57.818Z,101044.69
2019-04-22T09:14:26.133Z,101041.16
2019-04-22T09:17:02.380Z,101040.08
2019-04-22T09:19:30.208Z,101026.31
2019-04-22T09:22:17.251Z,101029.40
2019-04-22T09:24:45.970Z,101028.66
2019-04-22T09:27:22.535Z,101028.53
2019-04-22T09:29:43.137Z,101026.36
2019-04-22T09:32:30.632Z,101023.73
2019-04-22T09:34:51.240Z,101016.47
2019-04-22T09:40:04.580Z,101023.35
2019-04-22T09:42:39.127Z,101013.11
2019-04-22T09:45:13.175Z,101016.84
2019-04-22T09:47:48.982Z,101012.78
2019-04-22T09:50:16.419Z,101009.16
2019-04-22T09:52:48.965Z,101010.50
2019-04-22T09:55:16.700Z,101002.54
2019-04-22T09:57:52.468Z,101001.36
2019-04-22T10:00:25.507Z,101005.06
2019-04-22T10:08:06.702Z,100997.98
2019-04-22T10:10:51.670Z,100996.55
2019-04-22T10:13:12.902Z,100997.83
2019-04-22T10:15:43.963Z,100997.57
2019-04-22T10:18:16.329Z,100990.56
2019-04-22T10:20:51.833Z,100977.84
2019-04-22T10:23:25.007Z,100968.77
2019-04-22T10:26:00.807Z,100970.73
2019-04-22T10:28:32.333Z,100967.44
2019-04-22T10:31:00.189Z,100968.06
2019-04-22T10:33:25.715Z,100962.12
2019-04-22T10:35:41.470Z,100964.11
2019-04-22T10:38:12.389Z,100954.70
2019-04-22T10:40:42.965Z,100946.88
2019-04-22T10:43:15.022Z,100942.22
2019-04-22T10:45:46.193Z,100950.45
2019-04-22T10:48:16.524Z,100940.65
2019-04-22T10:50:50.525Z,100935.63
2019-04-22T10:53:21.692Z,100925.80
2019-04-22T10:55:52.014Z,100937.00
2019-04-22T10:58:22.857Z,100935.08
2019-04-22T11:00:54.282Z,100927.25
2019-04-22T11:03:26.543Z,100927.11
2019-04-22T11:05:59.106Z,100931.94
2019-04-22T11:08:45.813Z,100926.83
2019-04-22T11:11:21.525Z,100919.48
2019-04-22T11:13:41.879Z,100921.28
2019-04-22T11:16:23.411Z,100913.83
2019-04-22T11:18:55.830Z,100904.42
2019-04-22T11:21:31.798Z,100898.42
2019-04-22T11:24:08.503Z,100891.17
2019-04-22T11:26:41.050Z,100895.90
2019-04-22T11:29:12.081Z,100879.16
2019-04-22T11:31:42.412Z,100872.58
2019-04-22T11:34:13.075Z,100891.30
2019-04-22T11:36:45.048Z,100880.77
2019-04-22T11:39:17.020Z,100881.16
2019-04-22T11:41:47.513Z,100879.48
2019-04-22T11:44:19.169Z,100877.47
2019-04-22T11:46:53.627Z,100874.88
2019-04-22T11:49:25.778Z,100871.86
2019-04-22T11:51:56.459Z,100866.16
2019-04-22T11:54:26.765Z,100854.41
2019-04-22T11:56:56.972Z,100862.26
2019-04-22T11:59:28.855Z,100853.48
2019-04-22T12:02:00.572Z,100854.83
2019-04-22T12:04:34.250Z,100847.45
2019-04-22T12:07:05.886Z,100840.12
2019-04-22T12:09:41.881Z,100848.73
2019-04-22T12:12:16.026Z,100835.59
2019-04-22T12:14:50.431Z,100838.04
2019-04-22T12:17:22.182Z,100830.03
2019-04-22T12:19:52.693Z,100829.45
2019-04-22T12:22:23.062Z,100826.09
2019-04-22T12:24:54.443Z,100807.17
2019-04-22T12:27:28.009Z,100818.01
2019-04-22T12:29:56.801Z,100822.48
2019-04-22T12:32:29.395Z,100816.16
2019-04-22T12:35:01.730Z,100808.18
2019-04-22T12:37:43.529Z,100814.41
2019-04-22T12:40:10.789Z,100805.70
2019-04-22T12:42:41.686Z,100819.91
2019-04-22T12:45:18.368Z,100806.44
2019-04-22T12:47:48.572Z,100793.85
2019-04-22T12:50:27.306Z,100801.88
2019-04-22T12:52:59.666Z,100782.13
2019-04-22T12:55:26.165Z,100788.44
2019-04-22T12:57:58.621Z,100779.57
2019-04-22T13:00:30.045Z,100776.86
2019-04-22T13:03:01.047Z,100767.52
2019-04-22T13:05:31.489Z,100767.11
2019-04-22T13:08:02.093Z,100775.78
2019-04-22T13:10:46.853Z,100768.27
2019-04-22T13:13:07.103Z,100764.45
2019-04-22T13:15:37.378Z,100761.00
2019-04-22T13:18:17.538Z,100743.67
2019-04-22T13:20:40.370Z,100742.72
2019-04-22T13:23:11.594Z,100760.39
2019-04-22T13:25:42.934Z,100753.88
2019-04-22T13:28:13.344Z,100759.11
2019-04-22T13:30:44.354Z,100749.04
2019-04-22T13:33:14.900Z,100737.35
2019-04-22T13:35:45.737Z,100743.86
2019-04-22T13:38:19.275Z,100743.59
2019-04-22T13:41:10.853Z,100738.47
2019-04-22T13:43:24.896Z,100723.38
2019-04-22T13:45:58.030Z,100720.98
2019-04-22T13:48:52.775Z,100726.27
2019-04-22T13:51:30.106Z,100731.06
2019-04-22T13:56:23.776Z,100723.88
2019-04-22T13:58:54.110Z,100715.70
2019-04-22T14:01:14.834Z,100712.30
2019-04-22T14:04:08.085Z,100708.16
2019-04-22T14:06:41.036Z,100721.31
2019-04-22T14:09:11.571Z,100702.88
2019-04-22T14:11:49.718Z,100708.59
2019-04-22T14:14:13.679Z,100707.24
2019-04-22T14:16:44.878Z,100698.95
2019-04-22T14:19:16.012Z,100695.11
2019-04-22T14:21:47.475Z,100691.83
2019-04-22T14:24:17.984Z,100695.14
2019-04-22T14:27:01.312Z,100704.16
2019-04-22T14:29:21.950Z,100694.73
2019-04-22T14:32:04.269Z,100703.80
2019-04-22T14:34:24.335Z,100691.39
2019-04-22T14:36:55.248Z,100689.09
2019-04-22T14:39:26.164Z,100690.90
2019-04-22T14:42:19.611Z,100682.86
2019-04-22T14:47:26.458Z,100672.47
2019-04-22T14:49:54.296Z,100670.73
2019-04-22T14:52:31.088Z,100674.75
2019-04-22T14:54:49.228Z,100661.28
2019-04-22T14:57:07.890Z,100666.08
2019-04-22T14:59:38.092Z,100664.05
2019-04-22T15:02:09.810Z,100665.31
2019-04-22T15:04:41.569Z,100654.75
2019-04-22T15:07:12.751Z,100647.24
2019-04-22T15:09:46.339Z,100653.56
2019-04-22T15:12:27.750Z,100649.11
2019-04-22T15:14:48.377Z,100634.72
2019-04-22T15:17:37.054Z,100644.58
2019-04-22T15:20:35.534Z,100656.20
2019-04-22T15:23:06.733Z,100644.37
2019-04-22T15:25:38.368Z,100636.47
2019-04-22T15:28:09.195Z,100631.59
2019-04-22T15:30:39.459Z,100620.61
2019-04-22T15:33:12.142Z,100633.78
2019-04-22T15:35:43.275Z,100627.41
2019-04-22T15:38:15.420Z,100634.30
2019-04-22T15:40:46.922Z,100628.62
2019-04-22T15:43:17.188Z,100627.45
2019-04-22T15:45:48.543Z,100620.53
2019-04-22T15:48:21.192Z,100619.55
2019-04-22T15:50:52.834Z,100605.31
2019-04-22T15:53:23.340Z,100620.92
2019-04-22T15:55:54.683Z,100612.59
2019-04-22T15:58:25.833Z,100618.84
2019-04-22T16:01:06.153Z,100612.20
2019-04-22T16:03:28.975Z,100610.77
2019-04-22T16:05:59.809Z,100608.24
2019-04-22T16:08:33.581Z,100602.39
2019-04-22T16:11:02.178Z,100607.60
2019-04-22T16:13:36.759Z,100607.05
2019-04-22T16:16:07.400Z,100600.89
2019-04-22T16:18:38.085Z,100595.00
2019-04-22T16:21:09.072Z,100594.95
2019-04-22T16:23:46.628Z,100602.59
2019-04-22T16:26:42.519Z,100600.94
2019-04-22T16:29:15.789Z,100604.59
2019-04-22T16:31:47.592Z,100603.86
2019-04-22T16:34:17.759Z,100595.85
2019-04-22T16:36:52.553Z,100593.55
2019-04-22T16:39:26.941Z,100594.99
2019-04-22T16:41:57.063Z,100600.16
2019-04-22T16:44:27.279Z,100579.80
2019-04-22T16:47:01.587Z,100586.21
2019-04-22T16:49:39.257Z,100590.86
2019-04-22T16:52:10.077Z,100585.94
2019-04-22T16:54:41.814Z,100581.19
2019-04-22T16:57:12.337Z,100587.89
2019-04-22T16:59:46.568Z,100580.55
2019-04-22T17:02:50.160Z,100576.78
2019-04-22T17:05:38.002Z,100589.83
2019-04-22T17:08:08.328Z,100581.44
2019-04-22T17:10:39.715Z,100582.06
2019-04-22T17:13:20.894Z,100585.03
2019-04-22T17:15:47.336Z,100579.63
2019-04-22T17:18:21.523Z,100584.12
2019-04-22T17:20:52.953Z,100579.50
2019-04-22T17:23:23.429Z,100578.50
2019-04-22T17:25:54.430Z,100580.34
2019-04-22T17:28:27.750Z,100591.02
2019-04-22T17:31:01.884Z,100582.59
2019-04-22T17:33:35.030Z,100583.03
2019-04-22T17:36:07.674Z,100589.87
2019-04-22T17:38:50.378Z,100582.69
2019-04-22T17:41:21.946Z,100589.62
2019-04-22T17:44:15.315Z,100586.84
2019-04-22T17:46:48.682Z,100589.98
2019-04-22T17:49:50.293Z,100587.52
2019-04-22T17:52:24.731Z,100598.67
2019-04-22T17:54:56.188Z,100595.97
2019-04-22T17:57:32.516Z,100596.86
2019-04-22T18:00:00.069Z,100594.52
2019-04-22T18:02:35.739Z,100598.48
2019-04-22T18:04:57.472Z,100582.56
2019-04-22T18:07:49.527Z,100602.34
2019-04-22T18:13:01.767Z,100602.08
2019-04-22T18:15:26.929Z,100604.69
2019-04-22T18:18:07.137Z,100606.73
2019-04-22T18:20:38.152Z,100607.18
2019-04-22T18:23:02.705Z,100606.55
2019-04-22T18:25:56.664Z,100604.41
2019-04-22T18:28:31.162Z,100616.28
2019-04-22T18:31:06.553Z,100608.81
2019-04-22T18:33:41.781Z,100615.09
2019-04-22T18:36:14.072Z,100618.12
2019-04-22T18:38:52.993Z,100611.19
2019-04-22T18:41:30.386Z,100619.72
2019-04-22T18:44:04.646Z,100614.06
2019-04-22T18:46:37.060Z,100623.11
2019-04-22T18:49:08.437Z,100630.77
2019-04-22T18:52:01.084Z,100626.11
2019-04-22T18:54:55.366Z,100628.34
2019-04-22T18:57:47.984Z,100631.33
2019-04-22T19:00:09.063Z,100633.13
2019-04-22T19:02:50.760Z,100638.12
2019-04-22T19:05:30.656Z,100647.16
2019-04-22T19:08:18.410Z,100648.08
2019-04-22T19:16:16.643Z,100662.31
2019-04-22T19:18:46.047Z,100661.53
2019-04-22T19:21:08.711Z,100657.56
2019-04-22T19:23:43.995Z,100664.88
2019-04-22T19:26:15.521Z,100671.43
2019-04-22T19:28:42.178Z,100677.84
2019-04-22T19:33:55.056Z,100673.77
2019-04-22T19:36:26.377Z,100675.28
2019-04-22T19:38:52.513Z,100680.63
2019-04-22T19:41:33.937Z,100685.38
2019-04-22T19:44:05.559Z,100687.54
2019-04-22T19:46:35.263Z,100686.20
2019-04-22T19:49:17.717Z,100687.27
2019-04-22T19:51:53.949Z,100684.38
2019-04-22T19:54:14.045Z,100692.77
2019-04-22T19:56:42.910Z,100697.88
2019-04-22T19:59:19.562Z,100694.23
2019-04-22T20:02:04.375Z,100692.83
2019-04-22T20:04:52.759Z,100693.45
2019-04-22T20:07:38.195Z,100688.31
2019-04-22T20:10:18.992Z,100695.23
2019-04-22T20:12:57.272Z,100690.28
2019-04-22T20:15:26.715Z,100690.03
2019-04-22T20:18:22.576Z,100692.77
2019-04-22T20:20:44.649Z,100688.31
2019-04-22T20:23:05.344Z,100693.36
2019-04-22T20:25:40.703Z,100687.08
2019-04-22T20:28:19.365Z,100676.12
2019-04-22T20:30:46.801Z,100682.16
2019-04-22T20:33:27.089Z,100685.23
2019-04-22T20:35:51.792Z,100682.78
2019-04-22T20:38:25.865Z,100680.50
2019-04-22T20:41:02.738Z,100679.54
2019-04-22T20:43:41.629Z,100678.96
2019-04-22T20:46:19.081Z,100678.28
2019-04-22T20:48:50.191Z,100672.30
2019-04-22T20:51:13.998Z,100673.46
2019-04-22T20:53:48.010Z,100666.22
2019-04-22T20:56:18.828Z,100656.72
2019-04-22T20:58:51.771Z,100653.34
2019-04-22T21:01:24.301Z,100653.59
2019-04-22T21:03:46.968Z,100644.70
2019-04-22T21:06:29.313Z,100658.50
2019-04-22T21:09:02.254Z,100652.45
2019-04-22T21:11:30.120Z,100648.46
2019-04-22T21:14:01.332Z,100650.03
2019-04-22T21:16:50.170Z,100654.33
2019-04-22T21:19:26.222Z,100653.44
2019-04-22T21:21:50.259Z,100651.98
2019-04-22T21:24:17.913Z,100644.73
2019-04-22T21:26:47.048Z,100646.77
2019-04-22T21:29:23.590Z,100640.72
2019-04-22T21:31:54.627Z,100646.58
2019-04-22T21:34:23.418Z,100647.25
2019-04-22T21:37:02.565Z,100650.21
2019-04-22T21:39:26.325Z,100644.78
2019-04-22T21:42:03.391Z,100633.50
2019-04-22T21:44:33.991Z,100633.45
2019-04-22T21:47:14.716Z,100638.23
2019-04-22T21:49:53.490Z,100636.11
2019-04-22T21:52:17.108Z,100633.50
2019-04-22T21:54:57.385Z,100631.26
2019-04-22T21:57:57.764Z,100624.61
2019-04-22T22:00:31.079Z,100622.55
2019-04-22T22:03:00.556Z,100614.68
2019-04-22T22:05:26.576Z,100619.33
2019-04-22T22:07:53.514Z,100615.59
2019-04-22T22:10:34.451Z,100610.88
2019-04-22T22:13:09.687Z,100604.44
2019-04-22T22:15:38.711Z,100590.36
2019-04-22T22:18:08.689Z,100605.91
2019-04-22T22:21:02.184Z,100593.83
2019-04-22T22:23:25.166Z,100595.44
2019-04-22T22:25:49.207Z,100590.61
2019-04-22T22:28:40.014Z,100591.02
2019-04-22T22:31:22.605Z,100586.06
2019-04-22T22:34:03.774Z,100587.03
2019-04-22T22:36:32.499Z,100584.38
2019-04-22T22:39:01.408Z,100585.39
2019-04-22T22:41:18.377Z,100576.34
2019-04-22T22:43:51.173Z,100581.04
2019-04-22T22:46:40.129Z,100579.11
2019-04-22T22:49:28.257Z,100578.83
2019-04-22T22:52:11.891Z,100575.02
2019-04-22T22:54:31.777Z,100571.60
2019-04-22T22:57:05.351Z,100567.98
2019-04-22T22:59:33.222Z,100562.95
2019-04-22T23:02:10.232Z,100568.95
2019-04-22T23:04:41.197Z,100558.16
2019-04-22T23:07:20.192Z,100564.84
2019-04-22T23:09:47.390Z,100548.02
2019-04-22T23:12:29.437Z,100559.34
2019-04-22T23:14:44.112Z,100551.06
2019-04-22T23:17:04.145Z,100541.13
2019-04-22T23:19:33.691Z,100553.79
2019-04-22T23:22:08.035Z,100548.73
2019-04-22T23:25:00.205Z,100546.14
2019-04-22T23:27:38.756Z,100543.32
2019-04-22T23:30:21.549Z,100530.36
2019-04-22T23:33:01.217Z,100535.67
2019-04-22T23:35:36.604Z,100530.24
2019-04-22T23:38:13.707Z,100530.41
2019-04-22T23:40:42.608Z,100529.82
2019-04-22T23:43:24.090Z,100526.84
2019-04-22T23:45:50.463Z,100521.91
2019-04-22T23:48:21.063Z,100518.63
2019-04-22T23:50:55.752Z,100517.01
2019-04-22T23:53:55.602Z,100516.07
2019-04-22T23:56:09.226Z,100519.47
